sensor_id;sensor_type;location;lat;lon;timestamp;P1;durP1;ratioP1;P2;durP2;ratioP2
73919;SDS011;62266;53.348;-1.496;2023-11-22T00:00:10;8.50;;;3.95;;
73919;SDS011;62266;53.348;-1.496;2023-11-22T00:02:56;8.48;;;4.32;;
73919;SDS011;62266;53.348;-1.496;2023-11-22T00:05:40;6.87;;;3.70;;
73919;SDS011;62266;53.348;-1.496;2023-11-22T00:08:24;9.80;;;4.45;;
73919;SDS011;62266;53.348;-1.496;2023-11-22T00:11:08;7.93;;;4.05;;
73919;SDS011;62266;53.348;-1.496;2023-11-22T00:13:52;9.10;;;4.85;;
73919;SDS011;62266;53.348;-1.496;2023-11-22T00:16:39;9.15;;;4.10;;
73919;SDS011;62266;53.348;-1.496;2023-11-22T00:19:23;6.97;;;4.03;;
73919;SDS011;62266;53.348;-1.496;2023-11-22T00:22:07;7.30;;;4.03;;
73919;SDS011;62266;53.348;-1.496;2023-11-22T00:25:01;9.65;;;4.65;;
73919;SDS011;62266;53.348;-1.496;2023-11-22T00:27:45;10.20;;;4.60;;
73919;SDS011;62266;53.348;-1.496;2023-11-22T00:30:30;10.15;;;5.68;;
73919;SDS011;62266;53.348;-1.496;2023-11-22T00:33:14;7.80;;;4.60;;
73919;SDS011;62266;53.348;-1.496;2023-11-22T00:35:58;7.22;;;4.18;;
73919;SDS011;62266;53.348;-1.496;2023-11-22T00:38:42;7.50;;;4.45;;
73919;SDS011;62266;53.348;-1.496;2023-11-22T00:41:31;9.85;;;4.50;;
73919;SDS011;62266;53.348;-1.496;2023-11-22T00:44:15;8.93;;;4.40;;
73919;SDS011;62266;53.348;-1.496;2023-11-22T00:46:59;6.30;;;4.00;;
73919;SDS011;62266;53.348;-1.496;2023-11-22T00:49:44;7.95;;;3.85;;
73919;SDS011;62266;53.348;-1.496;2023-11-22T00:52:28;6.15;;;4.10;;
73919;SDS011;62266;53.348;-1.496;2023-11-22T00:55:13;6.30;;;3.88;;
73919;SDS011;62266;53.348;-1.496;2023-11-22T00:57:57;7.05;;;4.43;;
73919;SDS011;62266;53.348;-1.496;2023-11-22T01:00:47;6.93;;;4.17;;
73919;SDS011;62266;53.348;-1.496;2023-11-22T01:03:31;7.75;;;4.43;;
73919;SDS011;62266;53.348;-1.496;2023-11-22T01:06:15;8.30;;;4.47;;
73919;SDS011;62266;53.348;-1.496;2023-11-22T01:09:02;6.68;;;3.97;;
73919;SDS011;62266;53.348;-1.496;2023-11-22T01:11:46;7.20;;;3.78;;
73919;SDS011;62266;53.348;-1.496;2023-11-22T01:14:30;7.30;;;3.93;;
73919;SDS011;62266;53.348;-1.496;2023-11-22T01:17:14;7.70;;;4.32;;
73919;SDS011;62266;53.348;-1.496;2023-11-22T01:19:58;10.20;;;4.50;;
73919;SDS011;62266;53.348;-1.496;2023-11-22T01:22:42;8.90;;;5.00;;
73919;SDS011;62266;53.348;-1.496;2023-11-22T01:25:26;11.80;;;6.30;;
73919;SDS011;62266;53.348;-1.496;2023-11-22T01:28:12;10.13;;;5.47;;
73919;SDS011;62266;53.348;-1.496;2023-11-22T01:30:56;11.95;;;6.10;;
73919;SDS011;62266;53.348;-1.496;2023-11-22T01:33:40;8.20;;;4.85;;
73919;SDS011;62266;53.348;-1.496;2023-11-22T01:36:24;10.85;;;5.45;;
73919;SDS011;62266;53.348;-1.496;2023-11-22T01:39:10;12.13;;;5.65;;
73919;SDS011;62266;53.348;-1.496;2023-11-22T01:41:56;11.13;;;5.93;;
73919;SDS011;62266;53.348;-1.496;2023-11-22T01:44:40;12.27;;;5.93;;
73919;SDS011;62266;53.348;-1.496;2023-11-22T01:47:25;10.77;;;5.35;;
73919;SDS011;62266;53.348;-1.496;2023-11-22T01:50:10;10.63;;;5.60;;
73919;SDS011;62266;53.348;-1.496;2023-11-22T01:52:54;9.68;;;5.75;;
73919;SDS011;62266;53.348;-1.496;2023-11-22T01:55:41;10.30;;;5.23;;
73919;SDS011;62266;53.348;-1.496;2023-11-22T01:58:26;8.95;;;4.28;;
73919;SDS011;62266;53.348;-1.496;2023-11-22T02:01:11;9.52;;;5.07;;
73919;SDS011;62266;53.348;-1.496;2023-11-22T02:03:56;9.07;;;4.38;;
73919;SDS011;62266;53.348;-1.496;2023-11-22T02:06:40;8.00;;;4.20;;
73919;SDS011;62266;53.348;-1.496;2023-11-22T02:09:24;8.13;;;3.80;;
73919;SDS011;62266;53.348;-1.496;2023-11-22T02:12:08;6.18;;;3.70;;
73919;SDS011;62266;53.348;-1.496;2023-11-22T02:14:53;8.45;;;4.35;;
73919;SDS011;62266;53.348;-1.496;2023-11-22T02:17:37;11.43;;;3.50;;
73919;SDS011;62266;53.348;-1.496;2023-11-22T02:20:22;6.40;;;3.58;;
73919;SDS011;62266;53.348;-1.496;2023-11-22T02:23:09;10.10;;;4.33;;
73919;SDS011;62266;53.348;-1.496;2023-11-22T02:25:55;7.78;;;4.05;;
73919;SDS011;62266;53.348;-1.496;2023-11-22T02:28:39;8.50;;;4.35;;
73919;SDS011;62266;53.348;-1.496;2023-11-22T02:31:23;7.85;;;4.40;;
73919;SDS011;62266;53.348;-1.496;2023-11-22T02:34:07;10.20;;;4.85;;
73919;SDS011;62266;53.348;-1.496;2023-11-22T02:36:51;9.20;;;4.57;;
73919;SDS011;62266;53.348;-1.496;2023-11-22T02:39:43;9.88;;;5.10;;
73919;SDS011;62266;53.348;-1.496;2023-11-22T02:42:35;9.95;;;4.93;;
73919;SDS011;62266;53.348;-1.496;2023-11-22T02:45:20;10.55;;;4.85;;
73919;SDS011;62266;53.348;-1.496;2023-11-22T02:48:10;8.80;;;5.30;;
73919;SDS011;62266;53.348;-1.496;2023-11-22T02:50:55;9.13;;;5.43;;
73919;SDS011;62266;53.348;-1.496;2023-11-22T02:53:39;10.05;;;5.60;;
73919;SDS011;62266;53.348;-1.496;2023-11-22T02:56:26;11.07;;;5.63;;
73919;SDS011;62266;53.348;-1.496;2023-11-22T02:59:10;8.98;;;5.28;;
73919;SDS011;62266;53.348;-1.496;2023-11-22T03:01:56;8.38;;;4.72;;
73919;SDS011;62266;53.348;-1.496;2023-11-22T03:04:41;9.37;;;4.67;;
73919;SDS011;62266;53.348;-1.496;2023-11-22T03:07:25;7.47;;;3.95;;
73919;SDS011;62266;53.348;-1.496;2023-11-22T03:10:09;6.05;;;3.70;;
73919;SDS011;62266;53.348;-1.496;2023-11-22T03:12:54;5.63;;;3.30;;
73919;SDS011;62266;53.348;-1.496;2023-11-22T03:15:38;4.55;;;3.08;;
73919;SDS011;62266;53.348;-1.496;2023-11-22T03:18:22;9.53;;;3.80;;
73919;SDS011;62266;53.348;-1.496;2023-11-22T03:21:06;4.93;;;3.00;;
73919;SDS011;62266;53.348;-1.496;2023-11-22T03:23:50;6.35;;;2.50;;
73919;SDS011;62266;53.348;-1.496;2023-11-22T03:26:34;6.45;;;2.75;;
73919;SDS011;62266;53.348;-1.496;2023-11-22T03:29:19;4.65;;;2.33;;
73919;SDS011;62266;53.348;-1.496;2023-11-22T03:32:03;2.53;;;1.90;;
73919;SDS011;62266;53.348;-1.496;2023-11-22T03:34:47;4.13;;;2.45;;
73919;SDS011;62266;53.348;-1.496;2023-11-22T03:37:31;4.20;;;2.20;;
73919;SDS011;62266;53.348;-1.496;2023-11-22T03:40:16;2.15;;;1.80;;
73919;SDS011;62266;53.348;-1.496;2023-11-22T03:43:00;2.85;;;2.10;;
73919;SDS011;62266;53.348;-1.496;2023-11-22T03:45:44;4.40;;;2.00;;
73919;SDS011;62266;53.348;-1.496;2023-11-22T03:48:28;2.90;;;1.80;;
73919;SDS011;62266;53.348;-1.496;2023-11-22T03:51:12;5.55;;;2.00;;
73919;SDS011;62266;53.348;-1.496;2023-11-22T03:53:56;5.07;;;2.20;;
73919;SDS011;62266;53.348;-1.496;2023-11-22T03:56:41;7.57;;;3.30;;
73919;SDS011;62266;53.348;-1.496;2023-11-22T03:59:24;5.93;;;2.40;;
73919;SDS011;62266;53.348;-1.496;2023-11-22T04:02:09;6.05;;;2.17;;
73919;SDS011;62266;53.348;-1.496;2023-11-22T04:04:53;3.22;;;2.20;;
73919;SDS011;62266;53.348;-1.496;2023-11-22T04:07:37;3.13;;;2.00;;
73919;SDS011;62266;53.348;-1.496;2023-11-22T04:10:22;4.32;;;2.60;;
73919;SDS011;62266;53.348;-1.496;2023-11-22T04:13:07;13.27;;;7.00;;
73919;SDS011;62266;53.348;-1.496;2023-11-22T04:15:51;8.77;;;2.83;;
73919;SDS011;62266;53.348;-1.496;2023-11-22T04:18:35;3.75;;;2.35;;
73919;SDS011;62266;53.348;-1.496;2023-11-22T04:21:22;3.80;;;1.90;;
73919;SDS011;62266;53.348;-1.496;2023-11-22T04:24:06;8.40;;;3.60;;
73919;SDS011;62266;53.348;-1.496;2023-11-22T04:26:50;6.93;;;3.33;;
73919;SDS011;62266;53.348;-1.496;2023-11-22T04:29:34;5.07;;;2.05;;
73919;SDS011;62266;53.348;-1.496;2023-11-22T04:32:18;4.57;;;2.58;;
73919;SDS011;62266;53.348;-1.496;2023-11-22T04:35:05;4.95;;;1.52;;
73919;SDS011;62266;53.348;-1.496;2023-11-22T04:37:50;5.07;;;2.03;;
73919;SDS011;62266;53.348;-1.496;2023-11-22T04:40:34;5.83;;;1.83;;
73919;SDS011;62266;53.348;-1.496;2023-11-22T04:43:18;7.63;;;1.65;;
73919;SDS011;62266;53.348;-1.496;2023-11-22T04:46:02;5.68;;;1.25;;
73919;SDS011;62266;53.348;-1.496;2023-11-22T04:48:48;2.28;;;1.20;;
73919;SDS011;62266;53.348;-1.496;2023-11-22T04:51:34;4.63;;;1.98;;
73919;SDS011;62266;53.348;-1.496;2023-11-22T04:54:18;2.13;;;1.20;;
73919;SDS011;62266;53.348;-1.496;2023-11-22T04:57:02;4.03;;;1.40;;
73919;SDS011;62266;53.348;-1.496;2023-11-22T04:59:46;4.22;;;1.48;;
73919;SDS011;62266;53.348;-1.496;2023-11-22T05:02:30;6.45;;;1.33;;
73919;SDS011;62266;53.348;-1.496;2023-11-22T05:05:14;3.38;;;1.30;;
73919;SDS011;62266;53.348;-1.496;2023-11-22T05:07:58;2.37;;;1.53;;
73919;SDS011;62266;53.348;-1.496;2023-11-22T05:10:42;2.72;;;1.00;;
73919;SDS011;62266;53.348;-1.496;2023-11-22T05:13:26;4.13;;;1.10;;
73919;SDS011;62266;53.348;-1.496;2023-11-22T05:16:10;4.53;;;1.00;;
73919;SDS011;62266;53.348;-1.496;2023-11-22T05:18:54;10.27;;;1.00;;
73919;SDS011;62266;53.348;-1.496;2023-11-22T05:21:38;3.70;;;0.73;;
73919;SDS011;62266;53.348;-1.496;2023-11-22T05:24:22;3.80;;;0.68;;
73919;SDS011;62266;53.348;-1.496;2023-11-22T05:27:07;2.65;;;0.82;;
73919;SDS011;62266;53.348;-1.496;2023-11-22T05:29:51;5.68;;;0.88;;
73919;SDS011;62266;53.348;-1.496;2023-11-22T05:32:35;4.03;;;0.90;;
73919;SDS011;62266;53.348;-1.496;2023-11-22T05:35:20;5.37;;;0.80;;
73919;SDS011;62266;53.348;-1.496;2023-11-22T05:38:04;1.52;;;0.50;;
73919;SDS011;62266;53.348;-1.496;2023-11-22T05:40:48;8.20;;;0.95;;
73919;SDS011;62266;53.348;-1.496;2023-11-22T05:43:31;3.88;;;0.50;;
73919;SDS011;62266;53.348;-1.496;2023-11-22T05:46:19;3.17;;;0.60;;
73919;SDS011;62266;53.348;-1.496;2023-11-22T05:49:08;2.10;;;0.50;;
73919;SDS011;62266;53.348;-1.496;2023-11-22T05:51:54;1.40;;;0.43;;
73919;SDS011;62266;53.348;-1.496;2023-11-22T05:54:38;2.15;;;0.43;;
73919;SDS011;62266;53.348;-1.496;2023-11-22T05:57:22;2.17;;;0.60;;
73919;SDS011;62266;53.348;-1.496;2023-11-22T06:00:07;1.92;;;0.70;;
73919;SDS011;62266;53.348;-1.496;2023-11-22T06:02:51;2.10;;;0.50;;
73919;SDS011;62266;53.348;-1.496;2023-11-22T06:05:35;3.25;;;0.60;;
73919;SDS011;62266;53.348;-1.496;2023-11-22T06:08:19;2.25;;;0.50;;
73919;SDS011;62266;53.348;-1.496;2023-11-22T06:11:04;1.98;;;0.50;;
73919;SDS011;62266;53.348;-1.496;2023-11-22T06:13:47;3.17;;;0.65;;
73919;SDS011;62266;53.348;-1.496;2023-11-22T06:16:32;2.67;;;0.60;;
73919;SDS011;62266;53.348;-1.496;2023-11-22T06:19:16;1.52;;;0.52;;
73919;SDS011;62266;53.348;-1.496;2023-11-22T06:22:00;4.50;;;0.70;;
73919;SDS011;62266;53.348;-1.496;2023-11-22T06:24:44;1.58;;;0.70;;
73919;SDS011;62266;53.348;-1.496;2023-11-22T06:27:31;2.10;;;0.60;;
73919;SDS011;62266;53.348;-1.496;2023-11-22T06:30:16;3.50;;;0.73;;
73919;SDS011;62266;53.348;-1.496;2023-11-22T06:33:00;2.72;;;0.90;;
73919;SDS011;62266;53.348;-1.496;2023-11-22T06:35:45;1.92;;;0.70;;
73919;SDS011;62266;53.348;-1.496;2023-11-22T06:38:29;1.77;;;0.73;;
73919;SDS011;62266;53.348;-1.496;2023-11-22T06:41:13;2.83;;;1.00;;
73919;SDS011;62266;53.348;-1.496;2023-11-22T06:43:57;3.23;;;0.67;;
73919;SDS011;62266;53.348;-1.496;2023-11-22T06:46:41;1.48;;;0.68;;
73919;SDS011;62266;53.348;-1.496;2023-11-22T06:49:25;3.55;;;0.95;;
73919;SDS011;62266;53.348;-1.496;2023-11-22T06:52:09;2.40;;;0.90;;
73919;SDS011;62266;53.348;-1.496;2023-11-22T06:54:54;1.85;;;0.60;;
73919;SDS011;62266;53.348;-1.496;2023-11-22T06:57:38;2.60;;;1.00;;
73919;SDS011;62266;53.348;-1.496;2023-11-22T07:00:22;2.17;;;0.75;;
73919;SDS011;62266;53.348;-1.496;2023-11-22T07:03:06;2.78;;;0.98;;
73919;SDS011;62266;53.348;-1.496;2023-11-22T07:05:50;3.58;;;0.88;;
73919;SDS011;62266;53.348;-1.496;2023-11-22T07:08:35;4.07;;;0.77;;
73919;SDS011;62266;53.348;-1.496;2023-11-22T07:11:23;3.83;;;0.80;;
73919;SDS011;62266;53.348;-1.496;2023-11-22T07:14:08;2.63;;;0.80;;
73919;SDS011;62266;53.348;-1.496;2023-11-22T07:16:52;1.98;;;0.80;;
73919;SDS011;62266;53.348;-1.496;2023-11-22T07:19:36;2.40;;;0.80;;
73919;SDS011;62266;53.348;-1.496;2023-11-22T07:22:21;6.03;;;1.02;;
73919;SDS011;62266;53.348;-1.496;2023-11-22T07:25:07;4.07;;;0.80;;
73919;SDS011;62266;53.348;-1.496;2023-11-22T07:27:58;3.42;;;0.93;;
73919;SDS011;62266;53.348;-1.496;2023-11-22T07:30:44;2.13;;;0.80;;
73919;SDS011;62266;53.348;-1.496;2023-11-22T07:33:28;5.63;;;0.90;;
73919;SDS011;62266;53.348;-1.496;2023-11-22T07:36:13;4.85;;;1.38;;
73919;SDS011;62266;53.348;-1.496;2023-11-22T07:39:00;1.50;;;0.87;;
73919;SDS011;62266;53.348;-1.496;2023-11-22T07:41:46;2.80;;;0.85;;
73919;SDS011;62266;53.348;-1.496;2023-11-22T07:44:35;3.40;;;0.90;;
73919;SDS011;62266;53.348;-1.496;2023-11-22T07:47:22;2.67;;;0.80;;
73919;SDS011;62266;53.348;-1.496;2023-11-22T07:50:08;3.47;;;0.75;;
73919;SDS011;62266;53.348;-1.496;2023-11-22T07:52:53;2.00;;;0.70;;
73919;SDS011;62266;53.348;-1.496;2023-11-22T07:55:38;3.75;;;0.90;;
73919;SDS011;62266;53.348;-1.496;2023-11-22T07:58:22;3.63;;;0.90;;
73919;SDS011;62266;53.348;-1.496;2023-11-22T08:01:07;6.07;;;1.00;;
73919;SDS011;62266;53.348;-1.496;2023-11-22T08:03:56;4.50;;;0.95;;
73919;SDS011;62266;53.348;-1.496;2023-11-22T08:06:41;3.00;;;0.93;;
73919;SDS011;62266;53.348;-1.496;2023-11-22T08:09:29;2.47;;;1.00;;
73919;SDS011;62266;53.348;-1.496;2023-11-22T08:12:16;1.77;;;1.10;;
73919;SDS011;62266;53.348;-1.496;2023-11-22T08:15:03;3.97;;;1.08;;
73919;SDS011;62266;53.348;-1.496;2023-11-22T08:17:47;1.45;;;0.80;;
73919;SDS011;62266;53.348;-1.496;2023-11-22T08:20:31;2.50;;;0.90;;
73919;SDS011;62266;53.348;-1.496;2023-11-22T08:23:15;2.88;;;1.10;;
73919;SDS011;62266;53.348;-1.496;2023-11-22T08:26:00;3.47;;;1.42;;
73919;SDS011;62266;53.348;-1.496;2023-11-22T08:28:44;1.50;;;0.93;;
73919;SDS011;62266;53.348;-1.496;2023-11-22T08:31:28;2.20;;;1.02;;
73919;SDS011;62266;53.348;-1.496;2023-11-22T08:34:14;4.33;;;0.90;;
73919;SDS011;62266;53.348;-1.496;2023-11-22T08:36:59;5.03;;;1.10;;
73919;SDS011;62266;53.348;-1.496;2023-11-22T08:39:43;3.35;;;1.00;;
73919;SDS011;62266;53.348;-1.496;2023-11-22T08:42:27;3.03;;;1.25;;
73919;SDS011;62266;53.348;-1.496;2023-11-22T08:45:11;3.42;;;0.95;;
73919;SDS011;62266;53.348;-1.496;2023-11-22T08:47:55;2.27;;;1.07;;
73919;SDS011;62266;53.348;-1.496;2023-11-22T08:50:39;3.22;;;0.88;;
73919;SDS011;62266;53.348;-1.496;2023-11-22T08:53:23;2.65;;;0.98;;
73919;SDS011;62266;53.348;-1.496;2023-11-22T08:56:08;1.75;;;1.17;;
73919;SDS011;62266;53.348;-1.496;2023-11-22T08:58:53;4.30;;;1.25;;
73919;SDS011;62266;53.348;-1.496;2023-11-22T09:01:37;3.83;;;0.90;;
73919;SDS011;62266;53.348;-1.496;2023-11-22T09:04:21;3.75;;;1.95;;
73919;SDS011;62266;53.348;-1.496;2023-11-22T09:07:08;4.18;;;1.55;;
73919;SDS011;62266;53.348;-1.496;2023-11-22T09:09:53;12.88;;;5.68;;
73919;SDS011;62266;53.348;-1.496;2023-11-22T09:12:39;5.30;;;2.60;;
73919;SDS011;62266;53.348;-1.496;2023-11-22T09:15:24;4.37;;;1.80;;
73919;SDS011;62266;53.348;-1.496;2023-11-22T09:18:10;3.92;;;1.17;;
73919;SDS011;62266;53.348;-1.496;2023-11-22T09:20:56;3.10;;;1.65;;
73919;SDS011;62266;53.348;-1.496;2023-11-22T09:23:42;6.22;;;2.47;;
73919;SDS011;62266;53.348;-1.496;2023-11-22T09:26:27;4.38;;;1.70;;
73919;SDS011;62266;53.348;-1.496;2023-11-22T09:29:11;5.23;;;1.80;;
73919;SDS011;62266;53.348;-1.496;2023-11-22T09:31:58;3.08;;;1.65;;
73919;SDS011;62266;53.348;-1.496;2023-11-22T09:34:44;5.95;;;1.90;;
73919;SDS011;62266;53.348;-1.496;2023-11-22T09:37:29;3.17;;;1.92;;
73919;SDS011;62266;53.348;-1.496;2023-11-22T09:40:13;3.92;;;2.25;;
73919;SDS011;62266;53.348;-1.496;2023-11-22T09:43:01;3.70;;;1.40;;
73919;SDS011;62266;53.348;-1.496;2023-11-22T09:45:49;3.80;;;1.60;;
73919;SDS011;62266;53.348;-1.496;2023-11-22T09:48:34;3.88;;;1.40;;
73919;SDS011;62266;53.348;-1.496;2023-11-22T09:54:07;3.35;;;1.92;;
73919;SDS011;62266;53.348;-1.496;2023-11-22T09:56:56;9.53;;;3.50;;
73919;SDS011;62266;53.348;-1.496;2023-11-22T09:59:45;4.18;;;2.65;;
73919;SDS011;62266;53.348;-1.496;2023-11-22T10:02:33;3.72;;;2.10;;
73919;SDS011;62266;53.348;-1.496;2023-11-22T10:05:18;2.85;;;1.65;;
73919;SDS011;62266;53.348;-1.496;2023-11-22T10:08:03;6.68;;;3.05;;
73919;SDS011;62266;53.348;-1.496;2023-11-22T10:10:48;6.20;;;3.67;;
73919;SDS011;62266;53.348;-1.496;2023-11-22T10:13:35;6.38;;;4.18;;
73919;SDS011;62266;53.348;-1.496;2023-11-22T10:16:19;5.95;;;4.30;;
73919;SDS011;62266;53.348;-1.496;2023-11-22T10:19:04;7.93;;;4.72;;
73919;SDS011;62266;53.348;-1.496;2023-11-22T10:22:02;7.40;;;3.90;;
73919;SDS011;62266;53.348;-1.496;2023-11-22T10:24:48;7.90;;;4.33;;
73919;SDS011;62266;53.348;-1.496;2023-11-22T10:27:32;10.38;;;5.10;;
73919;SDS011;62266;53.348;-1.496;2023-11-22T10:30:17;10.27;;;4.40;;
73919;SDS011;62266;53.348;-1.496;2023-11-22T10:33:02;5.88;;;3.45;;
73919;SDS011;62266;53.348;-1.496;2023-11-22T10:35:47;6.28;;;3.00;;
73919;SDS011;62266;53.348;-1.496;2023-11-22T10:38:32;3.53;;;2.27;;
73919;SDS011;62266;53.348;-1.496;2023-11-22T10:41:17;3.88;;;1.55;;
73919;SDS011;62266;53.348;-1.496;2023-11-22T10:44:04;3.80;;;1.60;;
73919;SDS011;62266;53.348;-1.496;2023-11-22T10:46:49;2.50;;;1.70;;
73919;SDS011;62266;53.348;-1.496;2023-11-22T10:49:35;2.55;;;1.90;;
73919;SDS011;62266;53.348;-1.496;2023-11-22T10:52:19;2.10;;;1.30;;
73919;SDS011;62266;53.348;-1.496;2023-11-22T10:55:04;1.92;;;1.38;;
73919;SDS011;62266;53.348;-1.496;2023-11-22T10:57:52;2.78;;;1.75;;
73919;SDS011;62266;53.348;-1.496;2023-11-22T11:00:40;3.97;;;2.15;;
73919;SDS011;62266;53.348;-1.496;2023-11-22T11:03:28;4.30;;;2.40;;
73919;SDS011;62266;53.348;-1.496;2023-11-22T11:06:24;3.67;;;2.87;;
73919;SDS011;62266;53.348;-1.496;2023-11-22T11:09:12;6.40;;;2.78;;
73919;SDS011;62266;53.348;-1.496;2023-11-22T11:11:59;6.47;;;3.50;;
73919;SDS011;62266;53.348;-1.496;2023-11-22T11:14:43;6.60;;;4.38;;
73919;SDS011;62266;53.348;-1.496;2023-11-22T11:17:30;6.13;;;3.85;;
73919;SDS011;62266;53.348;-1.496;2023-11-22T11:20:15;6.87;;;4.10;;
73919;SDS011;62266;53.348;-1.496;2023-11-22T11:23:01;6.50;;;4.35;;
73919;SDS011;62266;53.348;-1.496;2023-11-22T11:25:49;7.63;;;4.90;;
73919;SDS011;62266;53.348;-1.496;2023-11-22T11:28:44;10.55;;;5.28;;
73919;SDS011;62266;53.348;-1.496;2023-11-22T11:31:33;10.48;;;6.22;;
73919;SDS011;62266;53.348;-1.496;2023-11-22T11:34:19;10.40;;;5.97;;
73919;SDS011;62266;53.348;-1.496;2023-11-22T11:37:07;10.15;;;6.07;;
73919;SDS011;62266;53.348;-1.496;2023-11-22T11:39:57;10.70;;;7.28;;
73919;SDS011;62266;53.348;-1.496;2023-11-22T11:42:42;13.15;;;7.88;;
73919;SDS011;62266;53.348;-1.496;2023-11-22T11:45:27;12.15;;;8.00;;
73919;SDS011;62266;53.348;-1.496;2023-11-22T11:48:12;13.23;;;9.17;;
73919;SDS011;62266;53.348;-1.496;2023-11-22T11:50:58;11.35;;;8.07;;
73919;SDS011;62266;53.348;-1.496;2023-11-22T11:53:42;13.60;;;9.07;;
73919;SDS011;62266;53.348;-1.496;2023-11-22T11:56:28;11.25;;;8.80;;
73919;SDS011;62266;53.348;-1.496;2023-11-22T11:59:13;10.68;;;8.18;;
73919;SDS011;62266;53.348;-1.496;2023-11-22T12:01:59;11.43;;;9.00;;
73919;SDS011;62266;53.348;-1.496;2023-11-22T12:04:43;12.45;;;8.75;;
73919;SDS011;62266;53.348;-1.496;2023-11-22T12:07:27;12.63;;;8.27;;
73919;SDS011;62266;53.348;-1.496;2023-11-22T12:10:11;11.75;;;8.38;;
73919;SDS011;62266;53.348;-1.496;2023-11-22T12:12:55;9.63;;;8.10;;
73919;SDS011;62266;53.348;-1.496;2023-11-22T12:15:40;14.97;;;8.33;;
73919;SDS011;62266;53.348;-1.496;2023-11-22T12:18:25;10.45;;;8.23;;
73919;SDS011;62266;53.348;-1.496;2023-11-22T12:21:09;10.30;;;7.90;;
73919;SDS011;62266;53.348;-1.496;2023-11-22T12:23:59;10.60;;;8.43;;
73919;SDS011;62266;53.348;-1.496;2023-11-22T12:26:47;11.88;;;9.23;;
73919;SDS011;62266;53.348;-1.496;2023-11-22T12:29:35;10.57;;;8.53;;
73919;SDS011;62266;53.348;-1.496;2023-11-22T12:32:24;10.50;;;8.38;;
73919;SDS011;62266;53.348;-1.496;2023-11-22T12:35:08;13.00;;;9.18;;
73919;SDS011;62266;53.348;-1.496;2023-11-22T12:37:52;13.13;;;9.50;;
73919;SDS011;62266;53.348;-1.496;2023-11-22T12:40:43;11.50;;;9.63;;
73919;SDS011;62266;53.348;-1.496;2023-11-22T12:43:29;13.57;;;9.57;;
73919;SDS011;62266;53.348;-1.496;2023-11-22T12:46:14;10.27;;;7.47;;
73919;SDS011;62266;53.348;-1.496;2023-11-22T12:49:06;11.20;;;8.77;;
73919;SDS011;62266;53.348;-1.496;2023-11-22T12:51:54;9.20;;;7.50;;
73919;SDS011;62266;53.348;-1.496;2023-11-22T12:54:39;9.57;;;7.93;;
73919;SDS011;62266;53.348;-1.496;2023-11-22T12:57:23;8.30;;;6.60;;
73919;SDS011;62266;53.348;-1.496;2023-11-22T13:00:07;10.65;;;6.80;;
73919;SDS011;62266;53.348;-1.496;2023-11-22T13:02:51;8.57;;;6.78;;
73919;SDS011;62266;53.348;-1.496;2023-11-22T13:05:36;8.00;;;7.20;;
73919;SDS011;62266;53.348;-1.496;2023-11-22T13:08:21;8.23;;;7.20;;
73919;SDS011;62266;53.348;-1.496;2023-11-22T13:11:12;7.97;;;6.40;;
73919;SDS011;62266;53.348;-1.496;2023-11-22T13:13:56;6.78;;;6.07;;
73919;SDS011;62266;53.348;-1.496;2023-11-22T13:16:41;7.68;;;6.18;;
73919;SDS011;62266;53.348;-1.496;2023-11-22T13:19:26;6.00;;;4.97;;
73919;SDS011;62266;53.348;-1.496;2023-11-22T13:22:11;5.57;;;4.75;;
73919;SDS011;62266;53.348;-1.496;2023-11-22T13:24:55;4.43;;;3.70;;
73919;SDS011;62266;53.348;-1.496;2023-11-22T13:27:41;4.32;;;3.00;;
73919;SDS011;62266;53.348;-1.496;2023-11-22T13:30:26;4.90;;;2.92;;
73919;SDS011;62266;53.348;-1.496;2023-11-22T13:33:10;3.63;;;3.05;;
73919;SDS011;62266;53.348;-1.496;2023-11-22T13:35:55;3.17;;;2.70;;
73919;SDS011;62266;53.348;-1.496;2023-11-22T13:38:39;3.53;;;3.17;;
73919;SDS011;62266;53.348;-1.496;2023-11-22T13:41:24;3.67;;;3.38;;
73919;SDS011;62266;53.348;-1.496;2023-11-22T13:44:09;2.25;;;1.80;;
73919;SDS011;62266;53.348;-1.496;2023-11-22T13:46:54;2.15;;;1.25;;
73919;SDS011;62266;53.348;-1.496;2023-11-22T13:49:38;1.38;;;1.17;;
73919;SDS011;62266;53.348;-1.496;2023-11-22T13:52:22;2.43;;;1.00;;
73919;SDS011;62266;53.348;-1.496;2023-11-22T13:55:06;3.38;;;1.55;;
73919;SDS011;62266;53.348;-1.496;2023-11-22T13:57:55;1.98;;;1.25;;
73919;SDS011;62266;53.348;-1.496;2023-11-22T14:00:40;0.90;;;0.60;;
73919;SDS011;62266;53.348;-1.496;2023-11-22T14:03:24;2.63;;;1.40;;
73919;SDS011;62266;53.348;-1.496;2023-11-22T14:06:08;1.10;;;0.40;;
73919;SDS011;62266;53.348;-1.496;2023-11-22T14:08:53;1.67;;;0.55;;
73919;SDS011;62266;53.348;-1.496;2023-11-22T14:11:37;5.22;;;0.50;;
73919;SDS011;62266;53.348;-1.496;2023-11-22T14:14:21;2.00;;;0.70;;
73919;SDS011;62266;53.348;-1.496;2023-11-22T14:17:05;1.58;;;0.57;;
73919;SDS011;62266;53.348;-1.496;2023-11-22T14:19:49;3.00;;;0.73;;
73919;SDS011;62266;53.348;-1.496;2023-11-22T14:22:34;0.88;;;0.60;;
73919;SDS011;62266;53.348;-1.496;2023-11-22T14:25:19;1.52;;;0.80;;
73919;SDS011;62266;53.348;-1.496;2023-11-22T14:28:04;2.00;;;0.73;;
73919;SDS011;62266;53.348;-1.496;2023-11-22T14:30:52;2.35;;;1.08;;
73919;SDS011;62266;53.348;-1.496;2023-11-22T14:33:38;3.10;;;1.07;;
73919;SDS011;62266;53.348;-1.496;2023-11-22T14:36:25;0.95;;;0.68;;
73919;SDS011;62266;53.348;-1.496;2023-11-22T14:39:10;2.58;;;1.10;;
73919;SDS011;62266;53.348;-1.496;2023-11-22T14:41:56;1.80;;;0.70;;
73919;SDS011;62266;53.348;-1.496;2023-11-22T14:44:40;4.50;;;1.70;;
73919;SDS011;62266;53.348;-1.496;2023-11-22T14:47:28;1.07;;;0.70;;
73919;SDS011;62266;53.348;-1.496;2023-11-22T14:50:14;2.45;;;0.75;;
73919;SDS011;62266;53.348;-1.496;2023-11-22T14:52:59;1.92;;;0.60;;
73919;SDS011;62266;53.348;-1.496;2023-11-22T14:55:43;5.07;;;1.65;;
73919;SDS011;62266;53.348;-1.496;2023-11-22T14:58:27;3.08;;;0.50;;
73919;SDS011;62266;53.348;-1.496;2023-11-22T15:01:13;2.93;;;0.93;;
73919;SDS011;62266;53.348;-1.496;2023-11-22T15:03:57;0.88;;;0.40;;
73919;SDS011;62266;53.348;-1.496;2023-11-22T15:06:42;1.10;;;0.50;;
73919;SDS011;62266;53.348;-1.496;2023-11-22T15:09:28;1.92;;;0.50;;
73919;SDS011;62266;53.348;-1.496;2023-11-22T15:12:12;3.45;;;0.57;;
73919;SDS011;62266;53.348;-1.496;2023-11-22T15:14:57;1.53;;;0.63;;
73919;SDS011;62266;53.348;-1.496;2023-11-22T15:17:41;2.00;;;1.08;;
73919;SDS011;62266;53.348;-1.496;2023-11-22T15:20:25;4.30;;;1.13;;
73919;SDS011;62266;53.348;-1.496;2023-11-22T15:23:10;4.32;;;0.82;;
73919;SDS011;62266;53.348;-1.496;2023-11-22T15:25:54;2.45;;;1.20;;
73919;SDS011;62266;53.348;-1.496;2023-11-22T15:28:38;4.20;;;1.00;;
73919;SDS011;62266;53.348;-1.496;2023-11-22T15:31:23;1.90;;;0.88;;
73919;SDS011;62266;53.348;-1.496;2023-11-22T15:34:07;1.98;;;0.90;;
73919;SDS011;62266;53.348;-1.496;2023-11-22T15:36:51;3.60;;;1.00;;
73919;SDS011;62266;53.348;-1.496;2023-11-22T15:39:35;4.78;;;1.40;;
73919;SDS011;62266;53.348;-1.496;2023-11-22T15:42:20;1.70;;;1.23;;
73919;SDS011;62266;53.348;-1.496;2023-11-22T15:45:04;7.82;;;1.70;;
73919;SDS011;62266;53.348;-1.496;2023-11-22T15:47:50;2.90;;;0.98;;
73919;SDS011;62266;53.348;-1.496;2023-11-22T15:50:34;2.25;;;1.30;;
73919;SDS011;62266;53.348;-1.496;2023-11-22T15:53:19;3.63;;;1.77;;
73919;SDS011;62266;53.348;-1.496;2023-11-22T15:56:03;1.00;;;0.60;;
73919;SDS011;62266;53.348;-1.496;2023-11-22T15:58:47;2.67;;;1.20;;
73919;SDS011;62266;53.348;-1.496;2023-11-22T16:01:33;3.60;;;1.25;;
73919;SDS011;62266;53.348;-1.496;2023-11-22T16:04:17;0.77;;;0.60;;
73919;SDS011;62266;53.348;-1.496;2023-11-22T16:07:01;1.60;;;0.88;;
73919;SDS011;62266;53.348;-1.496;2023-11-22T16:09:46;2.70;;;1.50;;
73919;SDS011;62266;53.348;-1.496;2023-11-22T16:12:30;3.38;;;1.05;;
73919;SDS011;62266;53.348;-1.496;2023-11-22T16:15:16;4.70;;;1.48;;
73919;SDS011;62266;53.348;-1.496;2023-11-22T16:18:00;1.98;;;1.20;;
73919;SDS011;62266;53.348;-1.496;2023-11-22T16:20:44;2.53;;;0.90;;